createdAt,value
2018-12-10T00:00:36.737Z,31.00
2018-12-10T00:03:11.068Z,33.50
2018-12-10T00:05:39.749Z,34.40
2018-12-10T00:08:08.416Z,34.80
2018-12-10T00:10:41.586Z,36.40
2018-12-10T00:13:07.912Z,33.20
2018-12-10T00:15:36.600Z,31.00
2018-12-10T00:18:05.284Z,35.50
2018-12-10T00:20:33.936Z,37.00
2018-12-10T00:23:02.641Z,29.70
2018-12-10T00:25:31.389Z,26.60
2018-12-10T00:28:00.068Z,25.80
2018-12-10T00:30:28.758Z,25.90
2018-12-10T00:32:57.425Z,22.90
2018-12-10T00:35:26.126Z,27.10
2018-12-10T00:37:54.813Z,23.00
2018-12-10T00:40:23.487Z,22.80
2018-12-10T00:42:52.180Z,19.00
2018-12-10T00:45:20.897Z,15.50
2018-12-10T00:47:49.577Z,17.00
2018-12-10T00:50:18.291Z,14.40
2018-12-10T00:52:46.951Z,10.50
2018-12-10T00:55:15.860Z,6.10
2018-12-10T00:57:44.554Z,4.80
2018-12-10T01:00:13.240Z,1.00
2018-12-10T01:02:41.925Z,1.00
2018-12-10T01:05:10.613Z,1.00
2018-12-10T01:07:39.309Z,1.00
2018-12-10T01:10:08.392Z,1.00
2018-12-10T01:12:37.158Z,1.00
2018-12-10T01:15:06.436Z,1.00
2018-12-10T01:17:35.144Z,1.00
2018-12-10T01:20:03.936Z,1.00
2018-12-10T01:22:32.617Z,1.80
2018-12-10T01:25:01.393Z,4.60
2018-12-10T01:27:30.102Z,9.20
2018-12-10T01:29:58.770Z,9.10
2018-12-10T01:32:27.527Z,14.40
2018-12-10T01:34:56.232Z,16.70
2018-12-10T01:37:24.933Z,18.30
2018-12-10T01:39:53.644Z,22.60
2018-12-10T01:42:22.317Z,24.60
2018-12-10T01:44:51.085Z,34.90
2018-12-10T01:47:19.740Z,30.70
2018-12-10T01:49:48.400Z,26.70
2018-12-10T01:52:17.110Z,22.70
2018-12-10T01:54:45.792Z,25.50
2018-12-10T01:57:14.467Z,21.10
2018-12-10T01:59:43.144Z,26.70
2018-12-10T02:02:11.816Z,28.40
2018-12-10T02:04:40.504Z,30.00
2018-12-10T02:07:09.202Z,26.90
2018-12-10T02:09:37.868Z,24.90
2018-12-10T02:12:06.531Z,28.90
2018-12-10T02:14:35.228Z,29.70
2018-12-10T02:17:03.908Z,35.20
2018-12-10T02:19:32.696Z,34.00
2018-12-10T02:22:01.397Z,32.90
2018-12-10T02:24:30.083Z,35.30
2018-12-10T02:26:58.784Z,34.10
2018-12-10T02:29:27.459Z,34.30
2018-12-10T02:31:56.154Z,37.70
2018-12-10T02:34:24.882Z,36.70
2018-12-10T02:36:53.600Z,38.20
2018-12-10T02:39:22.263Z,36.60
2018-12-10T02:41:51.512Z,40.50
2018-12-10T02:44:20.213Z,38.30
2018-12-10T02:46:48.888Z,37.50
2018-12-10T02:49:17.623Z,39.10
2018-12-10T02:51:46.320Z,37.30
2018-12-10T02:54:14.980Z,35.50
2018-12-10T02:56:43.676Z,34.80
2018-12-10T02:59:12.347Z,30.50
2018-12-10T03:01:41.019Z,36.50
2018-12-10T03:04:09.701Z,35.60
2018-12-10T03:06:38.400Z,35.60
2018-12-10T03:09:07.219Z,40.40
2018-12-10T03:11:35.919Z,35.40
2018-12-10T03:14:04.876Z,30.30
2018-12-10T03:16:33.605Z,28.70
2018-12-10T03:19:02.350Z,28.40
2018-12-10T03:21:31.022Z,30.40
2018-12-10T03:23:59.771Z,28.50
2018-12-10T03:26:28.690Z,31.80
2018-12-10T03:28:57.405Z,30.50
2018-12-10T03:31:26.131Z,25.50
2018-12-10T03:33:55.079Z,29.60
2018-12-10T03:36:24.220Z,25.20
2018-12-10T03:38:53.179Z,23.90
2018-12-10T03:41:21.872Z,20.80
2018-12-10T03:43:50.564Z,9.50
2018-12-10T03:46:19.253Z,10.80
2018-12-10T03:48:47.975Z,11.00
2018-12-10T03:51:16.656Z,4.30
2018-12-10T03:53:45.372Z,2.00
2018-12-10T03:56:14.049Z,6.10
2018-12-10T03:58:42.788Z,4.50
2018-12-10T04:01:11.507Z,5.80
2018-12-10T04:03:40.175Z,6.90
2018-12-10T04:06:08.865Z,10.30
2018-12-10T04:08:37.542Z,3.50
2018-12-10T04:11:06.220Z,5.90
2018-12-10T04:13:34.883Z,5.90
2018-12-10T04:16:03.543Z,7.70
2018-12-10T04:18:32.224Z,6.50
2018-12-10T04:21:00.888Z,3.50
2018-12-10T04:23:29.587Z,2.10
2018-12-10T04:25:58.277Z,3.30
2018-12-10T04:28:27.268Z,2.40
2018-12-10T04:30:56.016Z,3.40
2018-12-10T04:33:24.692Z,1.00
2018-12-10T04:35:53.381Z,5.70
2018-12-10T04:38:22.081Z,5.10
2018-12-10T04:40:50.739Z,1.00
2018-12-10T04:43:19.417Z,4.10
2018-12-10T04:45:48.108Z,1.00
2018-12-10T04:48:16.777Z,1.00
2018-12-10T04:50:45.444Z,1.00
2018-12-10T04:53:14.128Z,1.00
2018-12-10T04:55:42.822Z,1.00
2018-12-10T04:58:11.541Z,1.00
2018-12-10T05:00:40.257Z,1.00
2018-12-10T05:03:10.926Z,1.00
2018-12-10T05:05:39.592Z,1.00
2018-12-10T05:08:08.475Z,1.00
2018-12-10T05:10:37.261Z,1.00
2018-12-10T05:13:05.989Z,1.00
2018-12-10T05:15:34.755Z,1.00
2018-12-10T05:18:03.435Z,2.20
2018-12-10T05:20:32.124Z,3.40
2018-12-10T05:23:00.814Z,1.00
2018-12-10T05:25:29.493Z,1.00
2018-12-10T05:27:58.300Z,1.00
2018-12-10T05:30:27.016Z,1.00
2018-12-10T05:32:55.714Z,1.00
2018-12-10T05:35:24.490Z,1.00
2018-12-10T05:37:53.186Z,1.00
2018-12-10T05:40:21.905Z,1.00
2018-12-10T05:42:50.683Z,1.00
2018-12-10T05:45:19.368Z,1.00
2018-12-10T05:47:48.127Z,1.00
2018-12-10T05:50:16.806Z,1.00
2018-12-10T05:52:45.502Z,1.00
2018-12-10T05:55:14.224Z,1.00
2018-12-10T05:57:42.896Z,1.00
2018-12-10T06:00:11.656Z,1.00
2018-12-10T06:02:40.478Z,1.00
2018-12-10T06:05:09.256Z,1.00
2018-12-10T06:07:38.734Z,1.00
2018-12-10T06:10:07.823Z,1.00
2018-12-10T06:12:36.491Z,1.00
2018-12-10T06:15:05.778Z,1.00
2018-12-10T06:17:35.564Z,1.00
2018-12-10T06:20:05.349Z,1.00
2018-12-10T06:22:34.021Z,1.00
2018-12-10T06:25:02.693Z,1.00
2018-12-10T06:27:31.403Z,1.00
2018-12-10T06:30:01.168Z,1.00
2018-12-10T06:32:30.058Z,1.00
2018-12-10T06:34:58.861Z,1.00
2018-12-10T06:37:27.528Z,1.00
2018-12-10T06:39:57.040Z,1.00
2018-12-10T06:42:25.850Z,1.00
2018-12-10T06:44:54.523Z,1.00
2018-12-10T06:47:23.224Z,1.00
2018-12-10T06:49:51.955Z,1.00
2018-12-10T06:52:20.727Z,2.60
2018-12-10T06:54:49.397Z,6.10
2018-12-10T06:57:18.717Z,9.80
2018-12-10T06:59:47.419Z,8.60
2018-12-10T07:02:16.597Z,11.40
2018-12-10T07:04:45.320Z,11.50
2018-12-10T07:07:14.010Z,12.30
2018-12-10T07:09:42.747Z,7.50
2018-12-10T07:12:11.464Z,9.80
2018-12-10T07:14:40.301Z,14.30
2018-12-10T07:17:08.971Z,10.60
2018-12-10T07:19:37.629Z,11.70
2018-12-10T07:22:06.775Z,7.40
2018-12-10T07:24:35.748Z,5.50
2018-12-10T07:27:04.436Z,11.70
2018-12-10T07:29:33.119Z,10.20
2018-12-10T07:32:01.811Z,14.70
2018-12-10T07:34:30.488Z,13.90
2018-12-10T07:36:59.174Z,17.30
2018-12-10T07:39:27.873Z,20.20
2018-12-10T07:41:56.665Z,18.00
2018-12-10T07:44:25.414Z,14.20
2018-12-10T07:46:54.363Z,14.00
2018-12-10T07:49:23.088Z,14.00
2018-12-10T07:51:51.831Z,11.90
2018-12-10T07:54:20.535Z,5.50
2018-12-10T07:56:49.238Z,5.10
2018-12-10T07:59:17.945Z,9.10
2018-12-10T08:01:46.617Z,9.20
2018-12-10T08:04:16.174Z,11.60
2018-12-10T08:06:45.093Z,5.50
2018-12-10T08:09:13.807Z,7.80
2018-12-10T08:11:42.541Z,8.60
2018-12-10T08:14:11.692Z,5.60
2018-12-10T08:16:40.333Z,3.60
2018-12-10T08:19:09.019Z,1.60
2018-12-10T08:21:37.703Z,2.00
2018-12-10T08:24:06.428Z,2.50
2018-12-10T08:26:35.096Z,2.10
2018-12-10T08:29:07.440Z,4.90
2018-12-10T08:31:34.501Z,1.00
2018-12-10T08:34:03.201Z,1.00
2018-12-10T08:36:32.029Z,1.00
2018-12-10T08:39:00.753Z,1.50
2018-12-10T08:41:29.459Z,1.00
2018-12-10T08:43:58.175Z,1.00
2018-12-10T08:46:26.855Z,1.00
2018-12-10T08:48:55.573Z,1.00
2018-12-10T08:51:24.287Z,1.00
2018-12-10T08:53:52.998Z,1.00
2018-12-10T08:56:21.685Z,1.00
2018-12-10T08:58:50.353Z,1.00
2018-12-10T09:01:19.104Z,1.00
2018-12-10T09:03:47.814Z,1.00
2018-12-10T09:06:16.673Z,1.00
2018-12-10T09:08:45.345Z,1.00
2018-12-10T09:11:14.136Z,1.00
2018-12-10T09:13:43.269Z,1.00
2018-12-10T09:16:11.932Z,1.00
2018-12-10T09:18:40.712Z,1.00
2018-12-10T09:21:09.463Z,1.00
2018-12-10T09:23:38.150Z,1.00
2018-12-10T09:26:06.865Z,1.00
2018-12-10T09:28:35.570Z,1.00
2018-12-10T09:31:04.239Z,1.00
2018-12-10T09:33:32.944Z,1.00
2018-12-10T09:36:01.631Z,1.00
2018-12-10T09:38:30.452Z,1.00
2018-12-10T09:40:59.190Z,1.00
2018-12-10T09:43:27.970Z,1.00
2018-12-10T09:45:56.634Z,1.00
2018-12-10T09:48:25.340Z,1.00
2018-12-10T09:50:54.048Z,1.00
2018-12-10T09:53:22.723Z,1.00
2018-12-10T09:55:51.439Z,1.00
2018-12-10T09:58:20.152Z,1.00
2018-12-10T10:00:48.938Z,1.00
2018-12-10T10:03:17.627Z,1.00
2018-12-10T10:05:46.313Z,1.00
2018-12-10T10:08:15.057Z,1.00
2018-12-10T10:10:43.767Z,1.00
2018-12-10T10:13:12.456Z,1.00
2018-12-10T10:15:41.173Z,1.00
2018-12-10T10:18:09.896Z,1.00
2018-12-10T10:20:38.610Z,1.00
2018-12-10T10:23:07.596Z,1.00
2018-12-10T10:25:36.304Z,1.00
2018-12-10T10:28:05.052Z,1.00
2018-12-10T10:30:33.713Z,1.00
2018-12-10T10:33:02.479Z,1.00
2018-12-10T10:35:31.180Z,1.00
2018-12-10T10:37:59.922Z,1.00
2018-12-10T10:40:28.697Z,1.00
2018-12-10T10:42:57.465Z,1.00
2018-12-10T10:45:34.475Z,99.90
2018-12-10T10:47:56.913Z,99.90
2018-12-10T10:50:25.634Z,1.00
2018-12-10T10:52:54.362Z,1.00
2018-12-10T10:55:23.064Z,1.00
2018-12-10T10:57:51.731Z,1.00
2018-12-10T11:00:25.937Z,1.00
2018-12-10T11:02:56.267Z,1.00
2018-12-10T11:05:24.940Z,1.00
2018-12-10T11:07:53.826Z,1.00
2018-12-10T11:10:22.555Z,1.00
2018-12-10T11:12:51.263Z,1.00
2018-12-10T11:15:19.978Z,1.00
2018-12-10T11:17:48.682Z,1.00
2018-12-10T11:20:17.362Z,1.00
2018-12-10T11:22:46.261Z,1.00
2018-12-10T11:25:14.993Z,1.00
2018-12-10T11:27:43.648Z,1.00
2018-12-10T11:30:12.416Z,1.00
2018-12-10T11:32:41.067Z,1.00
2018-12-10T11:35:09.765Z,1.00
2018-12-10T11:37:38.444Z,1.00
2018-12-10T11:40:07.183Z,1.00
2018-12-10T11:42:35.866Z,1.00
2018-12-10T11:45:05.018Z,1.00
2018-12-10T11:47:33.700Z,1.00
2018-12-10T11:50:02.399Z,1.00
2018-12-10T11:52:31.075Z,1.00
2018-12-10T11:54:59.903Z,1.00
2018-12-10T11:57:28.608Z,1.00
2018-12-10T11:59:57.322Z,1.00
2018-12-10T12:02:29.711Z,1.00
2018-12-10T12:04:56.835Z,1.00
2018-12-10T12:07:25.498Z,1.00
2018-12-10T12:09:54.203Z,1.00
2018-12-10T12:12:25.619Z,1.00
2018-12-10T12:14:54.586Z,1.00
2018-12-10T12:17:23.641Z,1.00
2018-12-10T12:19:52.442Z,1.00
2018-12-10T12:22:21.767Z,1.00
2018-12-10T12:24:52.778Z,1.00
2018-12-10T12:27:21.984Z,1.00
2018-12-10T12:29:50.747Z,1.00
2018-12-10T12:32:19.433Z,1.00
2018-12-10T12:34:48.203Z,1.00
2018-12-10T12:37:16.899Z,1.00
2018-12-10T12:39:45.571Z,1.00
2018-12-10T12:42:14.285Z,1.00
2018-12-10T12:44:43.008Z,1.00
2018-12-10T12:47:11.692Z,1.00
2018-12-10T12:49:40.443Z,1.00
2018-12-10T12:52:09.163Z,1.00
2018-12-10T12:54:37.872Z,1.00
2018-12-10T12:57:06.756Z,1.00
2018-12-10T12:59:35.479Z,1.00
2018-12-10T13:02:04.184Z,1.00
2018-12-10T13:04:33.300Z,1.00
2018-12-10T13:07:02.304Z,24.40
2018-12-10T13:09:31.271Z,37.50
2018-12-10T13:12:00.024Z,30.00
2018-12-10T13:14:28.850Z,31.40
2018-12-10T13:16:57.643Z,43.80
2018-12-10T13:19:26.337Z,33.00
2018-12-10T13:21:55.093Z,11.60
2018-12-10T13:24:23.776Z,1.00
2018-12-10T13:26:52.476Z,1.00
2018-12-10T13:29:21.159Z,1.00
2018-12-10T13:31:50.066Z,1.00
2018-12-10T13:34:18.868Z,1.00
2018-12-10T13:36:47.577Z,1.00
2018-12-10T13:39:16.311Z,1.00
2018-12-10T13:41:45.040Z,1.00
2018-12-10T13:44:13.734Z,1.00
2018-12-10T13:46:42.436Z,1.00
2018-12-10T13:49:11.138Z,1.00
2018-12-10T13:51:40.177Z,1.00
2018-12-10T13:54:08.828Z,1.00
2018-12-10T13:56:37.755Z,1.00
2018-12-10T13:59:06.475Z,1.00
2018-12-10T14:01:35.162Z,1.00
2018-12-10T14:04:05.531Z,1.00
2018-12-10T14:06:34.213Z,1.00
2018-12-10T14:09:07.918Z,1.00
2018-12-10T14:11:33.699Z,1.00
2018-12-10T14:14:02.634Z,1.00
2018-12-10T14:16:31.361Z,1.00
2018-12-10T14:19:00.020Z,1.00
2018-12-10T14:21:28.742Z,1.00
2018-12-10T14:23:57.455Z,1.00
2018-12-10T14:26:26.225Z,1.00
2018-12-10T14:28:54.982Z,1.00
2018-12-10T14:31:27.328Z,1.00
2018-12-10T14:33:54.553Z,1.00
2018-12-10T14:36:23.244Z,1.00
2018-12-10T14:38:51.948Z,1.00
2018-12-10T14:41:20.648Z,1.00
2018-12-10T14:43:49.356Z,1.00
2018-12-10T14:46:18.055Z,1.00
2018-12-10T14:48:46.777Z,1.00
2018-12-10T14:51:15.542Z,1.00
2018-12-10T14:53:44.306Z,1.00
2018-12-10T14:56:12.991Z,1.00
2018-12-10T14:58:41.647Z,1.00
2018-12-10T15:01:10.360Z,1.00
2018-12-10T15:03:39.019Z,1.00
2018-12-10T15:06:07.722Z,1.00
2018-12-10T15:08:36.421Z,1.00
2018-12-10T15:11:05.067Z,1.00
2018-12-10T15:13:33.753Z,1.00
2018-12-10T15:16:02.471Z,1.00
2018-12-10T15:18:31.180Z,1.00
2018-12-10T15:20:59.900Z,1.00
2018-12-10T15:23:28.589Z,1.00
2018-12-10T15:25:57.263Z,1.00
2018-12-10T15:28:25.962Z,1.00
2018-12-10T15:30:54.879Z,1.00
2018-12-10T15:33:23.612Z,1.00
2018-12-10T15:35:52.322Z,1.00
2018-12-10T15:38:21.013Z,1.00
2018-12-10T15:40:49.731Z,1.00
2018-12-10T15:43:18.426Z,1.00
2018-12-10T15:45:47.147Z,1.00
2018-12-10T15:48:15.814Z,1.00
2018-12-10T15:50:44.475Z,1.00
2018-12-10T15:53:13.164Z,1.00
2018-12-10T15:55:41.825Z,1.00
2018-12-10T15:58:10.697Z,1.00
2018-12-10T16:00:39.396Z,1.00
2018-12-10T16:03:08.055Z,1.00
2018-12-10T16:05:37.521Z,1.00
2018-12-10T16:08:06.822Z,1.00
2018-12-10T16:10:35.546Z,1.00
2018-12-10T16:13:04.255Z,5.30
2018-12-10T16:15:32.957Z,1.00
2018-12-10T16:18:01.700Z,1.30
2018-12-10T16:20:30.385Z,1.00
2018-12-10T16:23:00.102Z,1.00
2018-12-10T16:25:28.782Z,1.00
2018-12-10T16:27:57.462Z,1.00
2018-12-10T16:30:26.680Z,5.50
2018-12-10T16:32:55.386Z,6.30
2018-12-10T16:35:24.141Z,10.20
2018-12-10T16:37:52.830Z,12.00
2018-12-10T16:40:21.526Z,10.90
2018-12-10T16:42:50.197Z,22.10
2018-12-10T16:45:18.872Z,22.10
2018-12-10T16:47:47.570Z,27.60
2018-12-10T16:50:16.324Z,32.80
2018-12-10T16:52:45.026Z,33.30
2018-12-10T16:55:14.263Z,40.10
2018-12-10T16:57:43.051Z,41.50
2018-12-10T17:00:12.463Z,44.40
2018-12-10T17:02:41.167Z,49.10
2018-12-10T17:05:09.860Z,52.60
2018-12-10T17:07:38.702Z,55.60
2018-12-10T17:10:08.009Z,66.90
2018-12-10T17:12:36.891Z,77.20
2018-12-10T17:15:06.301Z,87.60
2018-12-10T17:17:35.374Z,87.90
2018-12-10T17:20:05.346Z,90.20
2018-12-10T17:22:34.026Z,85.20
2018-12-10T17:25:02.832Z,82.00
2018-12-10T17:27:31.518Z,82.10
2018-12-10T17:30:00.195Z,75.70
2018-12-10T17:32:28.880Z,68.80
2018-12-10T17:34:57.549Z,72.80
2018-12-10T17:37:26.257Z,70.20
2018-12-10T17:39:54.930Z,66.40
2018-12-10T17:42:23.591Z,65.60
2018-12-10T17:44:52.364Z,64.60
2018-12-10T17:47:21.023Z,62.70
2018-12-10T17:49:49.903Z,56.70
2018-12-10T17:52:18.656Z,60.10
2018-12-10T17:54:47.346Z,69.50
2018-12-10T17:57:16.728Z,76.40
2018-12-10T17:59:45.427Z,85.30
2018-12-10T18:02:14.134Z,91.50
2018-12-10T18:04:42.830Z,91.20
2018-12-10T18:07:11.552Z,82.10
2018-12-10T18:09:40.219Z,92.40
2018-12-10T18:12:08.924Z,91.80
2018-12-10T18:14:37.604Z,86.20
2018-12-10T18:17:06.265Z,89.60
2018-12-10T18:19:34.960Z,83.80
2018-12-10T18:22:03.669Z,84.20
2018-12-10T18:24:32.355Z,84.90
2018-12-10T18:27:01.064Z,80.10
2018-12-10T18:29:29.815Z,73.20
2018-12-10T18:31:58.709Z,64.30
2018-12-10T18:34:27.408Z,71.40
2018-12-10T18:36:56.100Z,75.80
2018-12-10T18:39:24.781Z,79.40
2018-12-10T18:41:53.462Z,77.40
2018-12-10T18:44:22.393Z,79.40
2018-12-10T18:46:51.276Z,79.40
2018-12-10T18:49:19.981Z,70.20
2018-12-10T18:51:48.684Z,77.20
2018-12-10T18:54:17.377Z,68.70
2018-12-10T18:56:46.048Z,68.80
2018-12-10T18:59:14.712Z,68.80
2018-12-10T19:01:43.449Z,65.40
2018-12-10T19:04:12.173Z,67.90
2018-12-10T19:06:40.904Z,64.20
2018-12-10T19:09:09.771Z,68.80
2018-12-10T19:11:38.472Z,63.70
2018-12-10T19:14:07.196Z,69.30
2018-12-10T19:16:35.873Z,67.60
2018-12-10T19:19:04.671Z,76.10
2018-12-10T19:21:33.388Z,79.10
2018-12-10T19:24:02.665Z,81.80
2018-12-10T19:26:31.376Z,80.40
2018-12-10T19:29:00.159Z,82.30
2018-12-10T19:31:28.832Z,81.60
2018-12-10T19:33:57.521Z,88.80
2018-12-10T19:36:26.172Z,81.90
2018-12-10T19:38:54.889Z,91.30
2018-12-10T19:41:23.541Z,91.80
2018-12-10T19:43:52.244Z,81.40
2018-12-10T19:46:20.967Z,88.00
2018-12-10T19:48:49.676Z,83.90
2018-12-10T19:51:18.339Z,88.70
2018-12-10T19:53:47.176Z,80.80
2018-12-10T19:56:16.073Z,79.50
2018-12-10T19:58:44.755Z,85.70
2018-12-10T20:01:13.641Z,80.40
2018-12-10T20:03:42.693Z,81.60
2018-12-10T20:06:16.564Z,80.30
2018-12-10T20:08:45.274Z,87.30
2018-12-10T20:11:13.973Z,90.60
2018-12-10T20:13:43.331Z,95.00
2018-12-10T20:16:12.337Z,96.90
2018-12-10T20:18:41.044Z,99.90
2018-12-10T20:21:09.758Z,99.90
2018-12-10T20:23:38.436Z,99.90
2018-12-10T20:26:07.128Z,99.90
2018-12-10T20:28:36.082Z,99.90
2018-12-10T20:31:05.025Z,99.90
2018-12-10T20:33:33.699Z,99.90
2018-12-10T20:36:02.649Z,99.90
2018-12-10T20:38:31.394Z,99.90
2018-12-10T20:41:00.156Z,99.90
2018-12-10T20:43:28.872Z,99.90
2018-12-10T20:45:57.684Z,99.90
2018-12-10T20:48:26.817Z,99.90
2018-12-10T20:50:55.479Z,99.90
2018-12-10T20:53:24.146Z,99.90
2018-12-10T20:55:52.803Z,99.90
2018-12-10T20:58:21.504Z,99.90
2018-12-10T21:00:50.158Z,99.90
2018-12-10T21:03:18.849Z,99.90
2018-12-10T21:05:52.912Z,99.90
2018-12-10T21:08:21.595Z,99.90
2018-12-10T21:10:50.263Z,99.90
2018-12-10T21:13:18.969Z,99.90
2018-12-10T21:15:48.988Z,99.90
2018-12-10T21:18:17.944Z,99.90
2018-12-10T21:20:46.695Z,99.90
2018-12-10T21:23:16.889Z,99.90
2018-12-10T21:25:45.595Z,99.90
2018-12-10T21:28:14.332Z,99.90
2018-12-10T21:30:43.013Z,99.90
2018-12-10T21:33:11.674Z,99.60
2018-12-10T21:35:40.616Z,99.90
2018-12-10T21:38:09.275Z,98.80
2018-12-10T21:40:37.964Z,99.70
2018-12-10T21:43:06.661Z,98.90
2018-12-10T21:45:35.367Z,99.20
2018-12-10T21:48:04.019Z,99.10
2018-12-10T21:50:32.713Z,99.80
2018-12-10T21:53:01.411Z,99.10
2018-12-10T21:55:30.144Z,98.90
2018-12-10T21:57:58.857Z,99.80
2018-12-10T22:00:27.571Z,99.20
2018-12-10T22:02:56.302Z,99.60
2018-12-10T22:05:24.963Z,99.90
2018-12-10T22:07:53.737Z,99.10
2018-12-10T22:10:22.387Z,99.80
2018-12-10T22:12:51.108Z,99.90
2018-12-10T22:15:19.773Z,99.90
2018-12-10T22:17:48.501Z,99.50
2018-12-10T22:20:17.151Z,99.90
2018-12-10T22:22:45.849Z,99.90
2018-12-10T22:25:14.557Z,99.90
2018-12-10T22:27:43.273Z,99.90
2018-12-10T22:30:11.964Z,99.90
2018-12-10T22:32:40.694Z,99.90
2018-12-10T22:35:09.751Z,99.90
2018-12-10T22:37:38.411Z,99.90
2018-12-10T22:40:07.249Z,98.90
2018-12-10T22:42:35.969Z,98.80
2018-12-10T22:45:05.470Z,99.00
2018-12-10T22:47:34.203Z,98.90
2018-12-10T22:50:02.864Z,98.00
2018-12-10T22:52:31.570Z,95.10
2018-12-10T22:55:00.229Z,94.60
2018-12-10T22:57:28.917Z,94.70
2018-12-10T22:59:57.628Z,92.90
2018-12-10T23:02:26.302Z,91.40
2018-12-10T23:04:54.966Z,92.10
2018-12-10T23:07:23.649Z,92.70
2018-12-10T23:09:52.364Z,90.10
2018-12-10T23:12:21.054Z,91.20
2018-12-10T23:14:49.716Z,92.00
2018-12-10T23:17:18.999Z,91.30
2018-12-10T23:19:47.672Z,92.60
2018-12-10T23:22:16.340Z,92.80
2018-12-10T23:24:45.026Z,92.30
2018-12-10T23:27:13.720Z,92.70
2018-12-10T23:29:42.436Z,90.50
2018-12-10T23:32:11.117Z,91.90
2018-12-10T23:34:39.797Z,90.60
2018-12-10T23:37:08.565Z,89.00
2018-12-10T23:39:37.231Z,88.40
2018-12-10T23:42:05.987Z,85.80
2018-12-10T23:44:40.239Z,83.10
2018-12-10T23:47:08.917Z,82.50
2018-12-10T23:49:37.603Z,83.30
2018-12-10T23:52:06.318Z,85.20
2018-12-10T23:54:35.045Z,81.00
2018-12-10T23:57:03.741Z,79.70
2018-12-10T23:59:32.486Z,76.00
